Time;durP1;ratioP1;P1;durP2;ratioP2;P2;SDS_P1;SDS_P2;PMS_P1;PMS_P2;Temp;Humidity;BMP_temperature;BMP_pressure;BME280_temperature;BME280_humidity;BME280_pressure;Samples;Min_cycle;Max_cycle;Signal;HPM_P1;HPM_P2
2023/06/28 00:01:30;;;;;;;;;;;;;;;;;;4215509;28;20226;-58
2023/06/28 00:03:50;;;;;;;;;;;;;;;;;;4210607;28;19981;-57
2023/06/28 00:06:11;;;;;;;;;;;;;;;;;;4211331;28;19936;-57
2023/06/28 00:08:31;;;;;;;;;;;;;;;;;;4210711;28;19927;-57
2023/06/28 00:10:51;;;;;;;;;;;;;;;;;;4213502;28;19927;-57
2023/06/28 00:13:11;;;;;;;;;;;;;;;;;;4213949;28;19974;-57
2023/06/28 00:15:32;;;;;;;;;;;;;;;;;;4209561;28;19927;-58
2023/06/28 00:17:52;;;;;;;;;;;;;;;;;;4212234;28;20107;-57
2023/06/28 00:20:12;;;;;;;;;;;;;;;;;;4216866;28;20111;-58
2023/06/28 00:22:33;;;;;;;;;;;;;;;;;;4211260;28;20225;-57
2023/06/28 00:24:52;;;;;;;;;;;;;;;;;;4210067;28;20267;-57
2023/06/28 00:27:13;;;;;;;;;;;;;;;;;;4214895;28;19968;-57
2023/06/28 00:29:33;;;;;;;;;;;;;;;;;;4215455;28;20119;-57
2023/06/28 00:31:53;;;;;;;;;;;;;;;;;;4211597;28;19927;-57
2023/06/28 00:34:13;;;;;;;;;;;;;;;;;;4208961;28;19927;-57
2023/06/28 00:36:34;;;;;;;;;;;;;;;;;;4213897;28;20122;-57
2023/06/28 00:38:54;;;;;;;;;;;;;;;;;;4212263;28;20226;-58
2023/06/28 00:41:14;;;;;;;;;;;;;;;;;;4210796;28;19959;-58
2023/06/28 00:43:34;;;;;;;;;;;;;;;;;;4209422;28;19943;-58
2023/06/28 00:45:54;;;;;;;;;;;;;;;;;;4213475;28;19966;-57
2023/06/28 00:48:15;;;;;;;;;;;;;;;;;;4218031;28;20115;-58
2023/06/28 00:50:35;;;;;;;;;;;;;;;;;;4214867;28;19959;-57
2023/06/28 00:52:55;;;;;;;;;;;;;;;;;;4212549;28;19927;-57
2023/06/28 00:55:16;;;;;;;;;;;;;;;;;;4219656;28;20238;-58
2023/06/28 00:57:36;;;;;;;;;;;;;;;;;;4213980;28;19927;-58
2023/06/28 00:59:56;;;;;;;;;;;;;;;;;;4207764;28;19944;-57
2023/06/28 01:02:16;;;;;;;;;;;;;;;;;;4216321;28;19970;-59
2023/06/28 01:04:37;;;;;;;;;;;;;;;;;;4246395;22;19961;-60
2023/06/28 01:06:59;;;;;;;;;;;;;;;;;;4240522;28;19927;-61
2023/06/28 01:09:19;;;;;;;;;;;;;;;;;;4240363;28;19999;-61
2023/06/28 01:11:39;;;;;;;;;;;;;;;;;;4240348;28;19927;-61
2023/06/28 01:14:00;;;;;;;;;;;;;;;;;;4240774;28;19954;-61
2023/06/28 01:16:20;;;;;;;;;;;;;;;;;;4240470;28;19942;-61
2023/06/28 01:18:40;;;;;;;;;;;;;;;;;;4240381;28;20030;-61
2023/06/28 01:21:00;;;;;;;;;;;;;;;;;;4239298;28;19953;-61
2023/06/28 01:23:20;;;;;;;;;;;;;;;;;;4238746;28;19935;-61
2023/06/28 01:25:42;;;;;;;;;;;;;;;;;;4240583;28;19926;-60
2023/06/28 01:28:02;;;;;;;;;;;;;;;;;;4240467;28;19987;-61
2023/06/28 01:30:23;;;;;;;;;;;;;;;;;;4240287;28;20130;-61
2023/06/28 01:32:43;;;;;;;;;;;;;;;;;;4240544;28;19995;-61
2023/06/28 01:35:03;;;;;;;;;;;;;;;;;;4237478;28;19934;-61
2023/06/28 01:37:23;;;;;;;;;;;;;;;;;;4240296;28;19941;-61
2023/06/28 01:39:43;;;;;;;;;;;;;;;;;;4238110;28;20233;-61
2023/06/28 01:42:04;;;;;;;;;;;;;;;;;;4210602;28;20014;-61
2023/06/28 01:44:23;;;;;;;;;;;;;;;;;;4208741;28;19962;-61
2023/06/28 01:46:44;;;;;;;;;;;;;;;;;;4208382;28;19943;-61
2023/06/28 01:49:04;;;;;;;;;;;;;;;;;;4213160;28;19970;-61
2023/06/28 01:51:24;;;;;;;;;;;;;;;;;;4219514;28;19930;-60
2023/06/28 01:53:44;;;;;;;;;;;;;;;;;;4210427;28;19961;-60
2023/06/28 01:56:05;;;;;;;;;;;;;;;;;;4214915;28;20005;-61
2023/06/28 01:58:25;;;;;;;;;;;;;;;;;;4208832;28;19928;-60
2023/06/28 02:00:45;;;;;;;;;;;;;;;;;;4213129;28;19938;-61
2023/06/28 02:03:05;;;;;;;;;;;;;;;;;;4216349;28;19927;-61
2023/06/28 02:05:25;;;;;;;;;;;;;;;;;;4208702;28;19986;-61
2023/06/28 02:07:46;;;;;;;;;;;;;;;;;;4212738;28;20006;-61
2023/06/28 02:10:06;;;;;;;;;;;;;;;;;;4217085;28;19935;-61
2023/06/28 02:12:26;;;;;;;;;;;;;;;;;;4210652;28;20271;-61
2023/06/28 02:14:46;;;;;;;;;;;;;;;;;;4207350;28;20230;-61
2023/06/28 02:17:13;;;;;;;;;;;;;;;;;;4208692;28;19980;-61
2023/06/28 02:19:35;;;;;;;;;;;;;;;;;;4210380;28;19962;-61
2023/06/28 02:21:55;;;;;;;;;;;;;;;;;;4217151;28;19973;-60
2023/06/28 02:24:15;;;;;;;;;;;;;;;;;;4221718;28;20274;-61
2023/06/28 02:26:35;;;;;;;;;;;;;;;;;;4216420;28;19928;-61
2023/06/28 02:28:55;;;;;;;;;;;;;;;;;;4213951;28;20119;-61
2023/06/28 02:31:19;;;;;;;;;;;;;;;;;;4207897;28;19969;-61
2023/06/28 02:33:39;;;;;;;;;;;;;;;;;;4215160;28;20271;-61
2023/06/28 02:35:59;;;;;;;;;;;;;;;;;;4207626;28;19991;-61
2023/06/28 02:38:19;;;;;;;;;;;;;;;;;;4210641;28;19966;-61
2023/06/28 02:40:39;;;;;;;;;;;;;;;;;;4215739;28;19928;-61
2023/06/28 02:43:00;;;;;;;;;;;;;;;;;;4214659;28;20609;-60
2023/06/28 02:45:20;;;;;;;;;;;;;;;;;;4210751;28;19966;-60
2023/06/28 02:47:40;;;;;;;;;;;;;;;;;;4210116;28;19966;-60
2023/06/28 02:50:05;;;;;;;;;;;;;;;;;;4207674;28;19966;-61
2023/06/28 02:52:25;;;;;;;;;;;;;;;;;;4214590;28;19961;-61
2023/06/28 02:54:46;;;;;;;;;;;;;;;;;;4220785;28;20295;-61
2023/06/28 02:57:08;;;;;;;;;;;;;;;;;;4218033;28;19927;-60
2023/06/28 02:59:28;;;;;;;;;;;;;;;;;;4210893;28;19926;-60
2023/06/28 03:01:49;;;;;;;;;;;;;;;;;;4212161;28;19961;-61
2023/06/28 03:04:10;;;;;;;;;;;;;;;;;;4213528;28;19926;-61
2023/06/28 03:06:30;;;;;;;;;;;;;;;;;;4209033;28;19927;-61
2023/06/28 03:08:51;;;;;;;;;;;;;;;;;;4208212;28;19928;-61
2023/06/28 03:11:11;;;;;;;;;;;;;;;;;;4214349;28;19986;-61
2023/06/28 03:13:31;;;;;;;;;;;;;;;;;;4216441;28;19951;-61
2023/06/28 03:15:51;;;;;;;;;;;;;;;;;;4211335;28;19927;-61
2023/06/28 03:18:12;;;;;;;;;;;;;;;;;;4211623;28;19987;-61
2023/06/28 03:20:32;;;;;;;;;;;;;;;;;;4206840;28;19935;-61
2023/06/28 03:22:52;;;;;;;;;;;;;;;;;;4211526;28;19928;-61
2023/06/28 03:25:12;;;;;;;;;;;;;;;;;;4216875;28;19942;-61
2023/06/28 03:27:33;;;;;;;;;;;;;;;;;;4219659;28;19927;-61
2023/06/28 03:29:52;;;;;;;;;;;;;;;;;;4212202;28;19935;-61
2023/06/28 03:32:13;;;;;;;;;;;;;;;;;;4213207;28;19928;-61
2023/06/28 03:34:33;;;;;;;;;;;;;;;;;;4212415;28;20385;-61
2023/06/28 03:36:53;;;;;;;;;;;;;;;;;;4210068;28;20024;-61
2023/06/28 03:39:25;;;;;;;;;;;;;;;;;;4207719;28;19927;-61
2023/06/28 03:41:45;;;;;;;;;;;;;;;;;;4215957;28;19942;-61
2023/06/28 03:44:05;;;;;;;;;;;;;;;;;;4220059;28;20163;-61
2023/06/28 03:46:27;;;;;;;;;;;;;;;;;;4212882;28;19935;-61
2023/06/28 03:48:48;;;;;;;;;;;;;;;;;;4211447;28;19927;-61
2023/06/28 03:51:08;;;;;;;;;;;;;;;;;;4210015;28;19998;-61
2023/06/28 03:53:29;;;;;;;;;;;;;;;;;;4212744;28;19935;-61
2023/06/28 03:55:49;;;;;;;;;;;;;;;;;;4219101;28;19977;-61
2023/06/28 03:58:09;;;;;;;;;;;;;;;;;;4219637;28;19974;-61
2023/06/28 04:00:29;;;;;;;;;;;;;;;;;;4213215;28;20116;-61
2023/06/28 04:02:49;;;;;;;;;;;;;;;;;;4211526;28;19943;-61
2023/06/28 04:05:10;;;;;;;;;;;;;;;;;;4214017;28;19998;-61
2023/06/28 04:07:30;;;;;;;;;;;;;;;;;;4213567;28;20309;-61
2023/06/28 04:09:50;;;;;;;;;;;;;;;;;;4209941;28;19967;-61
2023/06/28 04:12:11;;;;;;;;;;;;;;;;;;4212309;28;20143;-61
2023/06/28 04:14:31;;;;;;;;;;;;;;;;;;4218262;28;19966;-61
2023/06/28 04:16:52;;;;;;;;;;;;;;;;;;4215109;28;19965;-61
2023/06/28 04:19:12;;;;;;;;;;;;;;;;;;4209151;28;19989;-61
2023/06/28 04:21:32;;;;;;;;;;;;;;;;;;4207739;28;20157;-61
2023/06/28 04:23:53;;;;;;;;;;;;;;;;;;4211087;28;19927;-60
2023/06/28 04:26:13;;;;;;;;;;;;;;;;;;4216750;28;19962;-61
2023/06/28 04:28:33;;;;;;;;;;;;;;;;;;4218724;28;19927;-61
2023/06/28 04:30:54;;;;;;;;;;;;;;;;;;4207629;28;19989;-61
2023/06/28 04:33:18;;;;;;;;;;;;;;;;;;4209780;28;19927;-61
2023/06/28 04:35:38;;;;;;;;;;;;;;;;;;4212428;28;20219;-61
2023/06/28 04:37:58;;;;;;;;;;;;;;;;;;4215784;28;19970;-61
2023/06/28 04:40:19;;;;;;;;;;;;;;;;;;4209141;28;19994;-60
2023/06/28 04:42:39;;;;;;;;;;;;;;;;;;4209686;28;20030;-61
2023/06/28 04:44:59;;;;;;;;;;;;;;;;;;4215824;28;19967;-61
2023/06/28 04:47:20;;;;;;;;;;;;;;;;;;4219971;28;19934;-61
2023/06/28 04:49:40;;;;;;;;;;;;;;;;;;4209306;28;20159;-61
2023/06/28 04:52:00;;;;;;;;;;;;;;;;;;4212795;28;19988;-61
2023/06/28 04:54:21;;;;;;;;;;;;;;;;;;4213772;28;19927;-61
2023/06/28 04:56:45;;;;;;;;;;;;;;;;;;4215383;28;19970;-61
2023/06/28 04:59:05;;;;;;;;;;;;;;;;;;4220544;28;19927;-60
2023/06/28 05:01:25;;;;;;;;;;;;;;;;;;4208363;28;19926;-61
2023/06/28 05:03:47;;;;;;;;;;;;;;;;;;4214148;28;19943;-61
2023/06/28 05:06:07;;;;;;;;;;;;;;;;;;4216415;28;19961;-61
2023/06/28 05:08:28;;;;;;;;;;;;;;;;;;4214541;28;19927;-60
2023/06/28 05:10:48;;;;;;;;;;;;;;;;;;4211094;28;20148;-60
2023/06/28 05:13:09;;;;;;;;;;;;;;;;;;4208371;28;19926;-61
2023/06/28 05:15:32;;;;;;;;;;;;;;;;;;4213445;28;19962;-61
2023/06/28 05:17:52;;;;;;;;;;;;;;;;;;4219166;28;19957;-61
2023/06/28 05:20:12;;;;;;;;;;;;;;;;;;4208116;28;19927;-60
2023/06/28 05:22:35;;;;;;;;;;;;;;;;;;4214205;28;19926;-61
2023/06/28 05:24:55;;;;;;;;;;;;;;;;;;4213669;28;19973;-60
2023/06/28 05:27:15;;;;;;;;;;;;;;;;;;4214194;28;20272;-60
2023/06/28 05:29:35;;;;;;;;;;;;;;;;;;4218631;28;19927;-61
2023/06/28 05:31:56;;;;;;;;;;;;;;;;;;4207913;28;19935;-61
2023/06/28 05:34:16;;;;;;;;;;;;;;;;;;4212159;28;20278;-62
2023/06/28 05:36:37;;;;;;;;;;;;;;;;;;4216089;28;19935;-61
2023/06/28 05:38:57;;;;;;;;;;;;;;;;;;4212419;28;19928;-61
2023/06/28 05:41:18;;;;;;;;;;;;;;;;;;4211388;28;19936;-61
2023/06/28 05:43:38;;;;;;;;;;;;;;;;;;4208394;28;20261;-61
2023/06/28 05:45:58;;;;;;;;;;;;;;;;;;4211149;28;19927;-61
2023/06/28 05:48:18;;;;;;;;;;;;;;;;;;4216637;28;20119;-61
2023/06/28 05:50:39;;;;;;;;;;;;;;;;;;4214407;28;20277;-61
2023/06/28 05:53:01;;;;;;;;;;;;;;;;;;4208979;28;19935;-61
2023/06/28 05:55:22;;;;;;;;;;;;;;;;;;4213114;28;19965;-61
2023/06/28 05:57:42;;;;;;;;;;;;;;;;;;4210904;28;19927;-61
2023/06/28 06:00:02;;;;;;;;;;;;;;;;;;4215545;28;20119;-61
2023/06/28 06:02:22;;;;;;;;;;;;;;;;;;4210504;28;19934;-61
2023/06/28 06:04:43;;;;;;;;;;;;;;;;;;4210401;28;19927;-61
2023/06/28 06:07:03;;;;;;;;;;;;;;;;;;4213908;28;19999;-61
2023/06/28 06:09:23;;;;;;;;;;;;;;;;;;4208108;28;20239;-61
2023/06/28 06:11:44;;;;;;;;;;;;;;;;;;4212439;28;19951;-61
2023/06/28 06:14:04;;;;;;;;;;;;;;;;;;4209598;28;19927;-61
2023/06/28 06:16:24;;;;;;;;;;;;;;;;;;4212408;28;19969;-60
2023/06/28 06:18:45;;;;;;;;;;;;;;;;;;4215564;28;19928;-61
2023/06/28 06:21:05;;;;;;;;;;;;;;;;;;4215932;28;19978;-60
2023/06/28 06:23:25;;;;;;;;;;;;;;;;;;4216828;28;19942;-60
2023/06/28 06:25:46;;;;;;;;;;;;;;;;;;4212469;28;20116;-61
2023/06/28 06:28:06;;;;;;;;;;;;;;;;;;4208024;28;19927;-60
2023/06/28 06:30:27;;;;;;;;;;;;;;;;;;4212962;28;19962;-61
2023/06/28 06:32:47;;;;;;;;;;;;;;;;;;4214516;28;19936;-61
2023/06/28 06:35:07;;;;;;;;;;;;;;;;;;4208804;28;20116;-61
2023/06/28 06:37:28;;;;;;;;;;;;;;;;;;4212818;28;19997;-61
2023/06/28 06:39:49;;;;;;;;;;;;;;;;;;4216933;28;19995;-61
2023/06/28 06:42:09;;;;;;;;;;;;;;;;;;4210111;28;19927;-61
2023/06/28 06:44:30;;;;;;;;;;;;;;;;;;4207652;28;19966;-61
2023/06/28 06:46:50;;;;;;;;;;;;;;;;;;4209116;28;19969;-61
2023/06/28 06:49:11;;;;;;;;;;;;;;;;;;4213618;28;19928;-61
2023/06/28 06:51:31;;;;;;;;;;;;;;;;;;4218904;28;19961;-60
2023/06/28 06:53:52;;;;;;;;;;;;;;;;;;4209406;28;19943;-61
2023/06/28 06:56:12;;;;;;;;;;;;;;;;;;4209416;28;19935;-61
2023/06/28 06:58:33;;;;;;;;;;;;;;;;;;4207852;28;19931;-61
2023/06/28 07:00:53;;;;;;;;;;;;;;;;;;4209926;28;19927;-61
2023/06/28 07:03:13;;;;;;;;;;;;;;;;;;4216193;28;19935;-61
2023/06/28 07:05:34;;;;;;;;;;;;;;;;;;4207291;28;19943;-61
2023/06/28 07:07:54;;;;;;;;;;;;;;;;;;4211644;28;19928;-61
2023/06/28 07:10:14;;;;;;;;;;;;;;;;;;4215217;28;19935;-61
2023/06/28 07:12:35;;;;;;;;;;;;;;;;;;4209629;28;20071;-60
2023/06/28 07:14:55;;;;;;;;;;;;;;;;;;4214795;28;19928;-60
2023/06/28 07:17:15;;;;;;;;;;;;;;;;;;4210692;28;19966;-61
2023/06/28 07:19:36;;;;;;;;;;;;;;;;;;4212742;28;19969;-61
2023/06/28 07:21:56;;;;;;;;;;;;;;;;;;4219112;28;19927;-61
2023/06/28 07:24:16;;;;;;;;;;;;;;;;;;4215725;28;19928;-60
2023/06/28 07:26:36;;;;;;;;;;;;;;;;;;4212105;28;19963;-60
2023/06/28 07:28:58;;;;;;;;;;;;;;;;;;4212300;28;19973;-61
2023/06/28 07:31:18;;;;;;;;;;;;;;;;;;4214332;28;19935;-61
2023/06/28 07:33:38;;;;;;;;;;;;;;;;;;4217468;28;19935;-61
2023/06/28 07:35:58;;;;;;;;;;;;;;;;;;4209790;28;19959;-61
2023/06/28 07:38:19;;;;;;;;;;;;;;;;;;4212451;28;19974;-61
2023/06/28 07:40:39;;;;;;;;;;;;;;;;;;4217057;28;19980;-61
2023/06/28 07:43:02;;;;;;;;;;;;;;;;;;4217346;28;19962;-61
2023/06/28 07:45:23;;;;;;;;;;;;;;;;;;4212751;28;19927;-60
2023/06/28 07:47:44;;;;;;;;;;;;;;;;;;4212120;28;19927;-60
2023/06/28 07:50:04;;;;;;;;;;;;;;;;;;4210285;28;19935;-60
2023/06/28 07:52:24;;;;;;;;;;;;;;;;;;4216389;28;19939;-60
2023/06/28 07:54:44;;;;;;;;;;;;;;;;;;4219686;28;19934;-61
2023/06/28 07:57:04;;;;;;;;;;;;;;;;;;4210042;28;20154;-61
2023/06/28 07:59:25;;;;;;;;;;;;;;;;;;4214284;28;19926;-60
2023/06/28 08:01:45;;;;;;;;;;;;;;;;;;4214476;28;19935;-60
2023/06/28 08:04:05;;;;;;;;;;;;;;;;;;4216173;28;20149;-60
2023/06/28 08:06:25;;;;;;;;;;;;;;;;;;4212731;28;19992;-60
2023/06/28 08:08:47;;;;;;;;;;;;;;;;;;4209867;28;19993;-60
2023/06/28 08:11:07;;;;;;;;;;;;;;;;;;4215229;28;19935;-60
2023/06/28 08:13:27;;;;;;;;;;;;;;;;;;4218667;28;19927;-60
2023/06/28 08:15:48;;;;;;;;;;;;;;;;;;4212552;28;19928;-60
2023/06/28 08:18:09;;;;;;;;;;;;;;;;;;4213570;28;19939;-60
2023/06/28 08:20:30;;;;;;;;;;;;;;;;;;4213570;28;19943;-60
2023/06/28 08:22:50;;;;;;;;;;;;;;;;;;4215711;28;20126;-60
2023/06/28 08:25:10;;;;;;;;;;;;;;;;;;4219331;28;19965;-61
2023/06/28 08:27:30;;;;;;;;;;;;;;;;;;4209699;28;19950;-60
2023/06/28 08:29:50;;;;;;;;;;;;;;;;;;4213136;28;19928;-60
2023/06/28 08:32:10;;;;;;;;;;;;;;;;;;4215071;28;19950;-60
2023/06/28 08:34:31;;;;;;;;;;;;;;;;;;4212324;28;20162;-60
2023/06/28 08:36:51;;;;;;;;;;;;;;;;;;4216769;28;19936;-60
2023/06/28 08:39:11;;;;;;;;;;;;;;;;;;4208767;28;19927;-60
2023/06/28 08:41:31;;;;;;;;;;;;;;;;;;4213347;28;19927;-60
2023/06/28 08:43:51;;;;;;;;;;;;;;;;;;4217642;28;19927;-60
2023/06/28 08:46:12;;;;;;;;;;;;;;;;;;4209163;28;20269;-60
2023/06/28 08:48:32;;;;;;;;;;;;;;;;;;4215001;28;20158;-60
2023/06/28 08:50:53;;;;;;;;;;;;;;;;;;4211817;28;19927;-60
2023/06/28 08:53:13;;;;;;;;;;;;;;;;;;4212012;28;19958;-60
2023/06/28 08:55:33;;;;;;;;;;;;;;;;;;4217307;28;19996;-60
2023/06/28 08:57:54;;;;;;;;;;;;;;;;;;4217574;28;19927;-60
2023/06/28 09:00:14;;;;;;;;;;;;;;;;;;4210390;28;20153;-60
2023/06/28 09:02:35;;;;;;;;;;;;;;;;;;4211578;28;19928;-60
2023/06/28 09:04:56;;;;;;;;;;;;;;;;;;4209083;28;20246;-60
2023/06/28 09:07:16;;;;;;;;;;;;;;;;;;4215578;28;19927;-60
2023/06/28 09:09:36;;;;;;;;;;;;;;;;;;4208293;28;19970;-60
2023/06/28 09:11:56;;;;;;;;;;;;;;;;;;4212029;28;19927;-60
2023/06/28 09:14:16;;;;;;;;;;;;;;;;;;4215776;28;19927;-60
2023/06/28 09:16:36;;;;;;;;;;;;;;;;;;4215098;28;20021;-60
2023/06/28 09:18:57;;;;;;;;;;;;;;;;;;4211717;28;20157;-61
2023/06/28 09:21:17;;;;;;;;;;;;;;;;;;4211704;28;19927;-60
2023/06/28 09:23:38;;;;;;;;;;;;;;;;;;4208918;28;19975;-61
2023/06/28 09:25:58;;;;;;;;;;;;;;;;;;4215021;28;20004;-61
2023/06/28 09:28:19;;;;;;;;;;;;;;;;;;4221524;28;20378;-60
2023/06/28 09:30:39;;;;;;;;;;;;;;;;;;4219481;28;20264;-60
2023/06/28 09:32:59;;;;;;;;;;;;;;;;;;4213403;28;19966;-60
2023/06/28 09:35:20;;;;;;;;;;;;;;;;;;4208017;28;20053;-61
2023/06/28 09:37:40;;;;;;;;;;;;;;;;;;4214611;28;19927;-60
2023/06/28 09:40:00;;;;;;;;;;;;;;;;;;4210178;28;19966;-60
2023/06/28 09:42:21;;;;;;;;;;;;;;;;;;4208622;28;19992;-60
2023/06/28 09:44:41;;;;;;;;;;;;;;;;;;4214726;28;19926;-60
2023/06/28 09:47:02;;;;;;;;;;;;;;;;;;4219012;28;19942;-60
2023/06/28 09:49:22;;;;;;;;;;;;;;;;;;4212166;28;19936;-61
2023/06/28 09:51:42;;;;;;;;;;;;;;;;;;4213098;28;19980;-60
2023/06/28 09:54:03;;;;;;;;;;;;;;;;;;4207813;28;19977;-60
2023/06/28 09:56:24;;;;;;;;;;;;;;;;;;4214159;28;19980;-60
2023/06/28 09:58:44;;;;;;;;;;;;;;;;;;4217432;28;19992;-61
2023/06/28 10:01:04;;;;;;;;;;;;;;;;;;4221139;28;19966;-61
2023/06/28 10:03:25;;;;;;;;;;;;;;;;;;4211695;28;20015;-61
2023/06/28 10:05:46;;;;;;;;;;;;;;;;;;4215756;28;19957;-61
2023/06/28 10:08:06;;;;;;;;;;;;;;;;;;4213308;28;19928;-61
2023/06/28 10:10:26;;;;;;;;;;;;;;;;;;4213387;28;19936;-61
2023/06/28 10:12:47;;;;;;;;;;;;;;;;;;4207476;28;19936;-61
2023/06/28 10:15:07;;;;;;;;;;;;;;;;;;4211870;28;20014;-61
2023/06/28 10:17:31;;;;;;;;;;;;;;;;;;4216578;28;20150;-61
2023/06/28 10:19:51;;;;;;;;;;;;;;;;;;4211513;28;20116;-61
2023/06/28 10:22:12;;;;;;;;;;;;;;;;;;4214440;28;19952;-61
2023/06/28 10:24:32;;;;;;;;;;;;;;;;;;4213537;28;19939;-60
2023/06/28 10:26:52;;;;;;;;;;;;;;;;;;4209885;28;19966;-61
2023/06/28 10:29:12;;;;;;;;;;;;;;;;;;4215999;28;19935;-61
2023/06/28 10:31:32;;;;;;;;;;;;;;;;;;4214177;28;20230;-61
2023/06/28 10:33:53;;;;;;;;;;;;;;;;;;4209841;28;19943;-61
2023/06/28 10:36:13;;;;;;;;;;;;;;;;;;4213940;28;20441;-61
2023/06/28 10:38:34;;;;;;;;;;;;;;;;;;4210587;28;19959;-61
2023/06/28 10:40:54;;;;;;;;;;;;;;;;;;4214245;28;19936;-61
2023/06/28 10:43:14;;;;;;;;;;;;;;;;;;4208221;28;19935;-61
2023/06/28 10:45:35;;;;;;;;;;;;;;;;;;4209654;28;20014;-61
2023/06/28 10:47:55;;;;;;;;;;;;;;;;;;4214815;28;19927;-61
2023/06/28 10:50:16;;;;;;;;;;;;;;;;;;4215880;28;19927;-60
2023/06/28 10:52:36;;;;;;;;;;;;;;;;;;4216008;28;19984;-60
2023/06/28 10:54:56;;;;;;;;;;;;;;;;;;4210737;28;19958;-61
2023/06/28 10:57:17;;;;;;;;;;;;;;;;;;4209277;28;20188;-60
2023/06/28 10:59:37;;;;;;;;;;;;;;;;;;4214358;28;19967;-61
2023/06/28 11:01:59;;;;;;;;;;;;;;;;;;4217566;28;19941;-60
2023/06/28 11:04:21;;;;;;;;;;;;;;;;;;4208379;28;20000;-60
2023/06/28 11:06:41;;;;;;;;;;;;;;;;;;4211883;28;19927;-60
2023/06/28 11:09:02;;;;;;;;;;;;;;;;;;4207582;28;19927;-60
2023/06/28 11:11:23;;;;;;;;;;;;;;;;;;4211975;28;20001;-61
2023/06/28 11:13:45;;;;;;;;;;;;;;;;;;4209261;28;20008;-60
2023/06/28 11:16:05;;;;;;;;;;;;;;;;;;4207588;28;19927;-61
2023/06/28 11:18:25;;;;;;;;;;;;;;;;;;4214330;28;19981;-61
2023/06/28 11:20:46;;;;;;;;;;;;;;;;;;4217693;28;19927;-60
2023/06/28 11:23:06;;;;;;;;;;;;;;;;;;4207892;28;20258;-60
2023/06/28 11:25:27;;;;;;;;;;;;;;;;;;4209206;28;20214;-60
2023/06/28 11:27:47;;;;;;;;;;;;;;;;;;4210768;28;19928;-59
2023/06/28 11:30:08;;;;;;;;;;;;;;;;;;4213147;28;19970;-60
2023/06/28 11:32:28;;;;;;;;;;;;;;;;;;4217950;28;19989;-61
2023/06/28 11:34:49;;;;;;;;;;;;;;;;;;4206891;28;19927;-60
2023/06/28 11:37:09;;;;;;;;;;;;;;;;;;4210773;28;19927;-59
2023/06/28 11:39:29;;;;;;;;;;;;;;;;;;4208160;28;19928;-60
2023/06/28 11:41:50;;;;;;;;;;;;;;;;;;4208865;28;20414;-61
2023/06/28 11:44:12;;;;;;;;;;;;;;;;;;4210325;28;19984;-60
2023/06/28 11:46:32;;;;;;;;;;;;;;;;;;4206492;28;19931;-60
2023/06/28 11:48:52;;;;;;;;;;;;;;;;;;4212078;28;19943;-61
2023/06/28 11:51:13;;;;;;;;;;;;;;;;;;4216151;28;19970;-60
2023/06/28 11:53:33;;;;;;;;;;;;;;;;;;4211968;28;20112;-60
2023/06/28 11:55:54;;;;;;;;;;;;;;;;;;4208262;28;19974;-60
2023/06/28 11:58:14;;;;;;;;;;;;;;;;;;4210910;28;19984;-60
2023/06/28 12:00:35;;;;;;;;;;;;;;;;;;4209888;28;19927;-60
2023/06/28 12:02:55;;;;;;;;;;;;;;;;;;4218412;28;19927;-60
2023/06/28 12:05:15;;;;;;;;;;;;;;;;;;4211670;28;19966;-60
2023/06/28 12:07:36;;;;;;;;;;;;;;;;;;4212577;28;19966;-59
2023/06/28 12:09:56;;;;;;;;;;;;;;;;;;4218345;28;19965;-59
2023/06/28 12:12:17;;;;;;;;;;;;;;;;;;4214688;28;20317;-60
2023/06/28 12:14:37;;;;;;;;;;;;;;;;;;4213742;28;19962;-59
2023/06/28 12:16:58;;;;;;;;;;;;;;;;;;4219246;28;19977;-60
2023/06/28 12:19:18;;;;;;;;;;;;;;;;;;4214972;28;19926;-59
2023/06/28 12:21:38;;;;;;;;;;;;;;;;;;4215395;28;20276;-59
2023/06/28 12:23:58;;;;;;;;;;;;;;;;;;4216076;28;19965;-60
2023/06/28 12:26:18;;;;;;;;;;;;;;;;;;4214804;28;19942;-59
2023/06/28 12:28:41;;;;;;;;;;;;;;;;;;4213600;28;19966;-60
2023/06/28 12:31:01;;;;;;;;;;;;;;;;;;4214291;28;19935;-59
2023/06/28 12:33:21;;;;;;;;;;;;;;;;;;4214601;28;19935;-59
2023/06/28 12:35:41;;;;;;;;;;;;;;;;;;4215245;28;19966;-60
2023/06/28 12:38:02;;;;;;;;;;;;;;;;;;4216559;28;19927;-60
2023/06/28 12:40:24;;;;;;;;;;;;;;;;;;4214659;28;20268;-60
2023/06/28 12:42:44;;;;;;;;;;;;;;;;;;4214412;28;19927;-59
2023/06/28 12:45:04;;;;;;;;;;;;;;;;;;4219446;28;19935;-60
2023/06/28 12:47:24;;;;;;;;;;;;;;;;;;4211102;28;19984;-60
2023/06/28 12:49:45;;;;;;;;;;;;;;;;;;4213327;28;19958;-59
2023/06/28 12:52:05;;;;;;;;;;;;;;;;;;4215252;28;20127;-59
2023/06/28 12:54:25;;;;;;;;;;;;;;;;;;4216295;28;20011;-59
2023/06/28 12:56:45;;;;;;;;;;;;;;;;;;4214860;28;19966;-60
2023/06/28 12:59:05;;;;;;;;;;;;;;;;;;4212626;28;20114;-59
2023/06/28 13:01:26;;;;;;;;;;;;;;;;;;4212233;28;20257;-59
2023/06/28 13:03:46;;;;;;;;;;;;;;;;;;4215511;28;19927;-59
2023/06/28 13:06:06;;;;;;;;;;;;;;;;;;4217483;28;19987;-59
2023/06/28 13:08:29;;;;;;;;;;;;;;;;;;4215063;28;20002;-59
2023/06/28 13:10:49;;;;;;;;;;;;;;;;;;4214652;28;19927;-59
2023/06/28 13:13:09;;;;;;;;;;;;;;;;;;4220176;28;19958;-60
2023/06/28 13:15:30;;;;;;;;;;;;;;;;;;4210680;28;19942;-59
2023/06/28 13:17:50;;;;;;;;;;;;;;;;;;4215850;28;19943;-60
2023/06/28 13:20:10;;;;;;;;;;;;;;;;;;4218447;28;20119;-59
2023/06/28 13:22:32;;;;;;;;;;;;;;;;;;4214622;28;19963;-59
2023/06/28 13:24:52;;;;;;;;;;;;;;;;;;4215506;28;19962;-60
2023/06/28 13:27:12;;;;;;;;;;;;;;;;;;4215132;28;19983;-59
2023/06/28 13:29:33;;;;;;;;;;;;;;;;;;4214279;28;19927;-59
2023/06/28 13:31:53;;;;;;;;;;;;;;;;;;4215010;28;20114;-59
2023/06/28 13:34:13;;;;;;;;;;;;;;;;;;4212321;28;19927;-60
2023/06/28 13:36:34;;;;;;;;;;;;;;;;;;4213920;28;19934;-59
2023/06/28 13:38:54;;;;;;;;;;;;;;;;;;4214485;28;20262;-60
2023/06/28 13:41:14;;;;;;;;;;;;;;;;;;4215497;28;20226;-60
2023/06/28 13:43:35;;;;;;;;;;;;;;;;;;4213602;28;20031;-60
2023/06/28 13:45:55;;;;;;;;;;;;;;;;;;4214828;28;19962;-60
2023/06/28 13:48:15;;;;;;;;;;;;;;;;;;4216516;28;19950;-60
2023/06/28 13:50:36;;;;;;;;;;;;;;;;;;4212405;28;19967;-60
2023/06/28 13:52:56;;;;;;;;;;;;;;;;;;4214354;28;19926;-59
2023/06/28 13:55:16;;;;;;;;;;;;;;;;;;4214293;28;20250;-60
2023/06/28 13:57:37;;;;;;;;;;;;;;;;;;4214719;28;20120;-59
2023/06/28 13:59:57;;;;;;;;;;;;;;;;;;4213394;28;19984;-59
2023/06/28 14:02:18;;;;;;;;;;;;;;;;;;4206880;28;19928;-59
2023/06/28 14:04:38;;;;;;;;;;;;;;;;;;4209826;28;19927;-60
2023/06/28 14:06:59;;;;;;;;;;;;;;;;;;4213593;28;20230;-59
2023/06/28 14:09:19;;;;;;;;;;;;;;;;;;4216275;28;19927;-59
2023/06/28 14:11:39;;;;;;;;;;;;;;;;;;4215784;28;19928;-60
2023/06/28 14:14:00;;;;;;;;;;;;;;;;;;4214723;28;19969;-59
2023/06/28 14:16:20;;;;;;;;;;;;;;;;;;4214983;28;19927;-59
2023/06/28 14:18:41;;;;;;;;;;;;;;;;;;4210374;28;19963;-59
2023/06/28 14:21:01;;;;;;;;;;;;;;;;;;4214676;28;19989;-60
2023/06/28 14:23:21;;;;;;;;;;;;;;;;;;4214090;28;19962;-59
2023/06/28 14:25:41;;;;;;;;;;;;;;;;;;4214169;28;20230;-60
2023/06/28 14:28:02;;;;;;;;;;;;;;;;;;4212734;28;19965;-59
2023/06/28 14:30:26;;;;;;;;;;;;;;;;;;4215891;28;20027;-59
2023/06/28 14:32:50;;;;;;;;;;;;;;;;;;4213090;28;19942;-59
2023/06/28 14:35:10;;;;;;;;;;;;;;;;;;4212843;28;19926;-59
2023/06/28 14:37:31;;;;;;;;;;;;;;;;;;4211976;28;19942;-60
2023/06/28 14:39:51;;;;;;;;;;;;;;;;;;4211183;28;20275;-59
2023/06/28 14:42:12;;;;;;;;;;;;;;;;;;4211416;28;20228;-60
2023/06/28 14:44:33;;;;;;;;;;;;;;;;;;4214834;28;19939;-60
2023/06/28 14:46:53;;;;;;;;;;;;;;;;;;4212768;28;19927;-59
2023/06/28 14:49:13;;;;;;;;;;;;;;;;;;4215368;28;20225;-60
2023/06/28 14:51:33;;;;;;;;;;;;;;;;;;4210473;28;19934;-60
2023/06/28 14:53:53;;;;;;;;;;;;;;;;;;4209709;28;20119;-59
2023/06/28 14:56:13;;;;;;;;;;;;;;;;;;4214952;28;20565;-60
2023/06/28 14:58:34;;;;;;;;;;;;;;;;;;4213349;28;19928;-60
2023/06/28 15:00:54;;;;;;;;;;;;;;;;;;4213656;28;19961;-59
2023/06/28 15:03:14;;;;;;;;;;;;;;;;;;4211984;28;19958;-59
2023/06/28 15:05:34;;;;;;;;;;;;;;;;;;4211988;28;20110;-60
2023/06/28 15:07:55;;;;;;;;;;;;;;;;;;4210109;28;19927;-60
2023/06/28 15:10:15;;;;;;;;;;;;;;;;;;4211211;28;19927;-60
2023/06/28 15:12:35;;;;;;;;;;;;;;;;;;4216894;28;20226;-59
2023/06/28 15:14:56;;;;;;;;;;;;;;;;;;4214753;28;19943;-60
2023/06/28 15:17:16;;;;;;;;;;;;;;;;;;4213074;28;19958;-59
2023/06/28 15:19:36;;;;;;;;;;;;;;;;;;4212720;28;20238;-59
2023/06/28 15:21:56;;;;;;;;;;;;;;;;;;4210007;28;19935;-59
2023/06/28 15:24:17;;;;;;;;;;;;;;;;;;4215145;28;19980;-59
2023/06/28 15:26:37;;;;;;;;;;;;;;;;;;4212615;28;19957;-59
2023/06/28 15:28:59;;;;;;;;;;;;;;;;;;4213417;28;19965;-59
2023/06/28 15:31:19;;;;;;;;;;;;;;;;;;4214185;28;19979;-59
2023/06/28 15:33:39;;;;;;;;;;;;;;;;;;4213138;28;19926;-60
2023/06/28 15:36:00;;;;;;;;;;;;;;;;;;4215695;28;19943;-60
2023/06/28 15:38:20;;;;;;;;;;;;;;;;;;4217906;28;19984;-60
2023/06/28 15:40:40;;;;;;;;;;;;;;;;;;4213961;28;19978;-59
2023/06/28 15:43:01;;;;;;;;;;;;;;;;;;4215639;28;19983;-59
2023/06/28 15:45:21;;;;;;;;;;;;;;;;;;4216442;28;19926;-59
2023/06/28 15:47:41;;;;;;;;;;;;;;;;;;4216836;28;19996;-59
2023/06/28 15:50:02;;;;;;;;;;;;;;;;;;4215198;28;20219;-59
2023/06/28 15:52:22;;;;;;;;;;;;;;;;;;4216380;28;19927;-59
2023/06/28 15:54:43;;;;;;;;;;;;;;;;;;4212792;28;19962;-59
2023/06/28 15:57:04;;;;;;;;;;;;;;;;;;4213347;28;20238;-58
2023/06/28 15:59:24;;;;;;;;;;;;;;;;;;4218271;28;19993;-59